sensor_id;sensor_type;location;lat;lon;timestamp;temperature;humidity
66871;DHT22;53780;44.998;9.926;2023-05-07T18:30:07;24.23;54.80
66871;DHT22;53780;44.998;9.926;2023-05-07T18:33:12;24.10;55.16
66871;DHT22;53780;44.998;9.926;2023-05-07T18:36:16;24.05;55.27
66871;DHT22;53780;44.998;9.926;2023-05-07T18:39:20;24.09;56.44
66871;DHT22;53780;44.998;9.926;2023-05-07T18:42:25;24.13;60.04
66871;DHT22;53780;44.998;9.926;2023-05-07T18:45:28;24.05;61.00
66871;DHT22;53780;44.998;9.926;2023-05-07T18:48:33;23.94;62.19
66871;DHT22;53780;44.998;9.926;2023-05-07T18:51:36;23.79;62.51
66871;DHT22;53780;44.998;9.926;2023-05-07T18:54:40;23.72;63.52
66871;DHT22;53780;44.998;9.926;2023-05-07T18:57:44;23.58;56.94
66871;DHT22;53780;44.998;9.926;2023-05-07T19:00:50;23.43;57.94
66871;DHT22;53780;44.998;9.926;2023-05-07T19:03:55;23.20;57.40
66871;DHT22;53780;44.998;9.926;2023-05-07T19:06:59;22.99;63.06
66871;DHT22;53780;44.998;9.926;2023-05-07T19:10:03;22.72;62.44
66871;DHT22;53780;44.998;9.926;2023-05-07T19:13:07;22.67;61.50
66871;DHT22;53780;44.998;9.926;2023-05-07T19:16:12;22.33;63.28
66871;DHT22;53780;44.998;9.926;2023-05-07T19:19:16;21.89;63.67
66871;DHT22;53780;44.998;9.926;2023-05-07T19:22:20;21.88;64.87
66871;DHT22;53780;44.998;9.926;2023-05-07T19:25:25;21.92;65.40
66871;DHT22;53780;44.998;9.926;2023-05-07T19:28:29;21.88;65.92
66871;DHT22;53780;44.998;9.926;2023-05-07T19:31:33;21.88;67.62
66871;DHT22;53780;44.998;9.926;2023-05-07T19:34:37;21.81;68.67
66871;DHT22;53780;44.998;9.926;2023-05-07T19:37:41;21.73;68.72
66871;DHT22;53780;44.998;9.926;2023-05-07T19:40:44;21.67;69.24
66871;DHT22;53780;44.998;9.926;2023-05-07T19:43:48;21.58;69.52
66871;DHT22;53780;44.998;9.926;2023-05-07T19:46:52;21.49;68.63
66871;DHT22;53780;44.998;9.926;2023-05-07T19:49:56;21.42;66.55
66871;DHT22;53780;44.998;9.926;2023-05-07T19:52:59;21.31;65.33
66871;DHT22;53780;44.998;9.926;2023-05-07T19:56:08;21.20;66.65
66871;DHT22;53780;44.998;9.926;2023-05-07T19:59:12;21.11;67.83
66871;DHT22;53780;44.998;9.926;2023-05-07T20:02:16;21.04;68.73
66871;DHT22;53780;44.998;9.926;2023-05-07T20:05:19;20.93;67.55
66871;DHT22;53780;44.998;9.926;2023-05-07T20:08:24;20.86;65.77
66871;DHT22;53780;44.998;9.926;2023-05-07T20:11:28;20.72;66.30
66871;DHT22;53780;44.998;9.926;2023-05-07T20:14:32;20.69;68.36
66871;DHT22;53780;44.998;9.926;2023-05-07T20:17:36;20.63;69.66
66871;DHT22;53780;44.998;9.926;2023-05-07T20:20:41;20.57;69.28
66871;DHT22;53780;44.998;9.926;2023-05-07T20:23:45;20.61;69.54
66871;DHT22;53780;44.998;9.926;2023-05-07T20:26:48;20.61;72.08
66871;DHT22;53780;44.998;9.926;2023-05-07T20:29:53;20.62;73.29
66871;DHT22;53780;44.998;9.926;2023-05-07T20:32:57;20.62;73.66
66871;DHT22;53780;44.998;9.926;2023-05-07T20:36:01;20.57;72.64
66871;DHT22;53780;44.998;9.926;2023-05-07T20:39:04;20.49;71.24
66871;DHT22;53780;44.998;9.926;2023-05-07T20:42:08;20.44;70.72
66871;DHT22;53780;44.998;9.926;2023-05-07T20:45:13;20.35;70.12
66871;DHT22;53780;44.998;9.926;2023-05-07T20:48:17;20.32;69.99
66871;DHT22;53780;44.998;9.926;2023-05-07T20:51:21;20.25;71.24
66871;DHT22;53780;44.998;9.926;2023-05-07T20:54:25;20.25;71.33
66871;DHT22;53780;44.998;9.926;2023-05-07T20:57:30;20.28;72.31
66871;DHT22;53780;44.998;9.926;2023-05-07T21:00:34;20.27;72.88
66871;DHT22;53780;44.998;9.926;2023-05-07T21:03:38;20.27;74.39
66871;DHT22;53780;44.998;9.926;2023-05-07T21:06:41;20.17;74.30
66871;DHT22;53780;44.998;9.926;2023-05-07T21:09:46;20.13;74.38
66871;DHT22;53780;44.998;9.926;2023-05-07T21:12:50;19.96;74.49
66871;DHT22;53780;44.998;9.926;2023-05-07T21:15:54;19.91;74.65
66871;DHT22;53780;44.998;9.926;2023-05-07T21:18:58;19.90;74.82
66871;DHT22;53780;44.998;9.926;2023-05-07T21:22:02;19.83;75.41
66871;DHT22;53780;44.998;9.926;2023-05-07T21:25:06;19.77;75.03
66871;DHT22;53780;44.998;9.926;2023-05-07T21:28:10;19.76;74.01
66871;DHT22;53780;44.998;9.926;2023-05-07T21:31:14;19.73;73.64
66871;DHT22;53780;44.998;9.926;2023-05-07T21:34:18;19.71;73.26
66871;DHT22;53780;44.998;9.926;2023-05-07T21:37:22;19.69;73.96
